Pagina principale
METAR-TAF:

METAR-TAF

Aeroporti :

Cannes, Francia

latitudine: 43-33N, longitudine: 006-57E, altezza: 3 m

Osservazione

Il bollettino è stato emesso 39 minuti fa, alle 00:30 UTC
Vento 18 kt da ovest con raffiche fino a 30 kt, variando fra ovest/sud-ovest e nord-ovest
Temperature 15°C
Umidità 59%
Pressione 1005 hPa
Visibilità 10 km o più
Poco nuvoloso ad un'altezza di 5000 ft

METAR: LFMD 170030Z AUTO 28018G30KT 240V310 9999 FEW050 15/07 Q1005

Ora: 02:09 (01:09 UTC)

Previsione

Il bollettino è stato emesso 11 ore e 9 minuti fa, alle 14:00 UTC
Previsione valida dal 16 alle 15 UTC al 17 alle 15 UTC
Vento 20 kt da ovest/sud-ovest con raffiche fino a 35 kt
Visibilità 10 km o più
nessuna nube inferiore a 1500 m e nessun cumulonembo
Temporaneamente
dal 17 alle 01 UTC al 17 alle 05 UTC
Vento 25 kt da ovest/sud-ovest con raffiche fino a 45 kt

TAF: LFMD 161400Z 1615/1715 25020G35KT CAVOK TEMPO 1701/1705 25025G45KT

Osservazioni e previsioni meteorologiche di più di 4000 aeroporti (messaggi METAR e TAF).

Le stazioni disponibili sono rappresentate dai dischi gialli e rossi sulla carta.

Puntare il mouse per vedere il nome della stazione.

Clicca sopra per visualizzare le osservazioni e previsioni meteorologiche.

Per cambiare la mappa : fare clic sui pulsanti verdi con una croce nera per ingrandire, il pulsante verde con un trattino per diminuire, o sulla freccia verde per le mappe adiacenti.


METAR-TAF: